sensor_id;sensor_type;location;lat;lon;timestamp;temperature;humidity
80258;DHT22;69565;37.974;23.708;2023-08-20T00:01:22;30.20;37.20
80258;DHT22;69565;37.974;23.708;2023-08-20T00:03:50;30.20;38.20
80258;DHT22;69565;37.974;23.708;2023-08-20T00:06:16;30.20;37.20
80258;DHT22;69565;37.974;23.708;2023-08-20T00:08:42;30.20;37.20
80258;DHT22;69565;37.974;23.708;2023-08-20T00:11:08;30.20;37.20
80258;DHT22;69565;37.974;23.708;2023-08-20T00:13:35;30.20;37.10
80258;DHT22;69565;37.974;23.708;2023-08-20T00:16:01;30.20;37.20
80258;DHT22;69565;37.974;23.708;2023-08-20T00:18:27;30.20;37.20
80258;DHT22;69565;37.974;23.708;2023-08-20T00:20:54;30.20;37.20
80258;DHT22;69565;37.974;23.708;2023-08-20T00:23:20;30.20;37.20
80258;DHT22;69565;37.974;23.708;2023-08-20T00:25:46;30.20;37.20
80258;DHT22;69565;37.974;23.708;2023-08-20T00:28:12;30.20;37.20
80258;DHT22;69565;37.974;23.708;2023-08-20T00:30:38;30.20;37.20
80258;DHT22;69565;37.974;23.708;2023-08-20T00:33:03;30.20;37.20
80258;DHT22;69565;37.974;23.708;2023-08-20T00:35:29;30.20;37.30
80258;DHT22;69565;37.974;23.708;2023-08-20T00:37:55;30.20;37.20
80258;DHT22;69565;37.974;23.708;2023-08-20T00:40:20;30.20;37.20
80258;DHT22;69565;37.974;23.708;2023-08-20T00:42:46;30.20;37.30
80258;DHT22;69565;37.974;23.708;2023-08-20T00:45:12;30.10;37.20
80258;DHT22;69565;37.974;23.708;2023-08-20T00:47:38;30.10;37.20
80258;DHT22;69565;37.974;23.708;2023-08-20T00:50:04;30.10;37.20
80258;DHT22;69565;37.974;23.708;2023-08-20T00:52:33;30.10;37.20
80258;DHT22;69565;37.974;23.708;2023-08-20T00:54:59;30.10;37.20
80258;DHT22;69565;37.974;23.708;2023-08-20T00:57:25;30.10;37.20
80258;DHT22;69565;37.974;23.708;2023-08-20T00:59:53;30.10;37.20
80258;DHT22;69565;37.974;23.708;2023-08-20T01:02:19;30.10;37.20
80258;DHT22;69565;37.974;23.708;2023-08-20T01:04:46;30.10;37.30
80258;DHT22;69565;37.974;23.708;2023-08-20T01:07:35;30.10;37.30
80258;DHT22;69565;37.974;23.708;2023-08-20T01:10:06;30.10;37.20
80258;DHT22;69565;37.974;23.708;2023-08-20T01:12:34;30.10;37.20
80258;DHT22;69565;37.974;23.708;2023-08-20T01:15:01;30.10;37.20
80258;DHT22;69565;37.974;23.708;2023-08-20T01:17:27;30.10;37.20
80258;DHT22;69565;37.974;23.708;2023-08-20T01:19:53;30.10;37.20
80258;DHT22;69565;37.974;23.708;2023-08-20T01:30:20;30.00;37.20
80258;DHT22;69565;37.974;23.708;2023-08-20T01:32:47;30.00;37.10
80258;DHT22;69565;37.974;23.708;2023-08-20T01:35:13;30.00;37.10
80258;DHT22;69565;37.974;23.708;2023-08-20T01:37:39;30.00;37.20
80258;DHT22;69565;37.974;23.708;2023-08-20T01:40:07;30.10;37.20
80258;DHT22;69565;37.974;23.708;2023-08-20T01:42:35;30.00;37.20
80258;DHT22;69565;37.974;23.708;2023-08-20T01:45:00;30.00;37.10
80258;DHT22;69565;37.974;23.708;2023-08-20T01:47:26;30.10;37.20
80258;DHT22;69565;37.974;23.708;2023-08-20T01:49:51;30.10;37.20
80258;DHT22;69565;37.974;23.708;2023-08-20T01:52:17;30.00;37.20
80258;DHT22;69565;37.974;23.708;2023-08-20T01:54:43;30.00;37.20
80258;DHT22;69565;37.974;23.708;2023-08-20T01:57:09;30.00;37.20
80258;DHT22;69565;37.974;23.708;2023-08-20T01:59:34;30.00;37.20
80258;DHT22;69565;37.974;23.708;2023-08-20T02:02:00;30.00;37.20
80258;DHT22;69565;37.974;23.708;2023-08-20T02:04:26;30.00;37.20
80258;DHT22;69565;37.974;23.708;2023-08-20T02:06:51;30.00;37.30
80258;DHT22;69565;37.974;23.708;2023-08-20T02:09:17;30.00;37.20
80258;DHT22;69565;37.974;23.708;2023-08-20T02:11:45;30.00;37.20
80258;DHT22;69565;37.974;23.708;2023-08-20T02:14:10;30.00;37.20
80258;DHT22;69565;37.974;23.708;2023-08-20T02:16:36;30.00;37.30
80258;DHT22;69565;37.974;23.708;2023-08-20T02:19:02;30.00;37.30
80258;DHT22;69565;37.974;23.708;2023-08-20T02:21:30;30.00;37.40
80258;DHT22;69565;37.974;23.708;2023-08-20T02:23:56;30.00;37.40
80258;DHT22;69565;37.974;23.708;2023-08-20T02:26:21;30.00;37.40
80258;DHT22;69565;37.974;23.708;2023-08-20T02:28:47;30.00;37.40
80258;DHT22;69565;37.974;23.708;2023-08-20T02:31:13;30.00;37.40
80258;DHT22;69565;37.974;23.708;2023-08-20T02:33:38;30.00;37.40
80258;DHT22;69565;37.974;23.708;2023-08-20T02:36:04;30.00;37.40
80258;DHT22;69565;37.974;23.708;2023-08-20T02:38:30;29.90;37.40
80258;DHT22;69565;37.974;23.708;2023-08-20T02:40:56;30.00;37.40
80258;DHT22;69565;37.974;23.708;2023-08-20T02:43:22;29.90;37.40
80258;DHT22;69565;37.974;23.708;2023-08-20T02:45:48;30.00;37.50
80258;DHT22;69565;37.974;23.708;2023-08-20T02:48:14;29.90;37.50
80258;DHT22;69565;37.974;23.708;2023-08-20T02:50:40;29.90;37.50
80258;DHT22;69565;37.974;23.708;2023-08-20T02:53:06;29.90;37.50
80258;DHT22;69565;37.974;23.708;2023-08-20T02:55:33;29.90;37.60
80258;DHT22;69565;37.974;23.708;2023-08-20T02:57:59;29.90;37.60
80258;DHT22;69565;37.974;23.708;2023-08-20T03:00:25;29.90;37.60
80258;DHT22;69565;37.974;23.708;2023-08-20T03:02:50;29.90;37.60
80258;DHT22;69565;37.974;23.708;2023-08-20T03:05:16;29.80;37.60
80258;DHT22;69565;37.974;23.708;2023-08-20T03:07:42;29.90;37.70
80258;DHT22;69565;37.974;23.708;2023-08-20T03:10:08;29.90;37.70
80258;DHT22;69565;37.974;23.708;2023-08-20T03:12:33;29.90;37.60
80258;DHT22;69565;37.974;23.708;2023-08-20T03:14:59;29.90;37.70
80258;DHT22;69565;37.974;23.708;2023-08-20T03:17:25;29.90;37.70
80258;DHT22;69565;37.974;23.708;2023-08-20T03:22:24;29.90;37.70
80258;DHT22;69565;37.974;23.708;2023-08-20T03:24:50;29.90;37.70
80258;DHT22;69565;37.974;23.708;2023-08-20T03:27:16;29.90;37.70
80258;DHT22;69565;37.974;23.708;2023-08-20T03:29:42;29.90;37.80
80258;DHT22;69565;37.974;23.708;2023-08-20T03:32:08;29.90;37.70
80258;DHT22;69565;37.974;23.708;2023-08-20T03:34:33;29.80;37.60
80258;DHT22;69565;37.974;23.708;2023-08-20T03:37:00;29.80;37.70
80258;DHT22;69565;37.974;23.708;2023-08-20T03:39:25;29.80;37.70
80258;DHT22;69565;37.974;23.708;2023-08-20T03:41:52;29.80;37.70
80258;DHT22;69565;37.974;23.708;2023-08-20T03:44:18;29.80;37.80
80258;DHT22;69565;37.974;23.708;2023-08-20T03:46:44;29.80;37.80
80258;DHT22;69565;37.974;23.708;2023-08-20T03:49:10;29.80;37.80
80258;DHT22;69565;37.974;23.708;2023-08-20T03:51:36;29.80;37.90
80258;DHT22;69565;37.974;23.708;2023-08-20T03:54:02;29.80;37.90
80258;DHT22;69565;37.974;23.708;2023-08-20T03:56:28;29.80;37.90
80258;DHT22;69565;37.974;23.708;2023-08-20T03:58:54;29.80;37.80
80258;DHT22;69565;37.974;23.708;2023-08-20T04:01:20;29.80;37.80
80258;DHT22;69565;37.974;23.708;2023-08-20T04:03:47;29.80;37.90
80258;DHT22;69565;37.974;23.708;2023-08-20T04:06:13;29.80;37.90
80258;DHT22;69565;37.974;23.708;2023-08-20T04:08:39;29.80;37.90
80258;DHT22;69565;37.974;23.708;2023-08-20T04:11:05;29.80;37.90
80258;DHT22;69565;37.974;23.708;2023-08-20T04:13:31;29.80;37.90
80258;DHT22;69565;37.974;23.708;2023-08-20T04:15:57;29.80;37.90
80258;DHT22;69565;37.974;23.708;2023-08-20T04:18:23;29.80;37.90
80258;DHT22;69565;37.974;23.708;2023-08-20T04:20:52;29.80;37.90
80258;DHT22;69565;37.974;23.708;2023-08-20T04:23:21;29.80;37.80
80258;DHT22;69565;37.974;23.708;2023-08-20T04:25:47;29.90;37.90
80258;DHT22;69565;37.974;23.708;2023-08-20T04:28:13;29.90;37.80
80258;DHT22;69565;37.974;23.708;2023-08-20T04:30:39;29.90;37.80
80258;DHT22;69565;37.974;23.708;2023-08-20T04:33:05;29.90;37.70
80258;DHT22;69565;37.974;23.708;2023-08-20T04:35:30;30.00;37.80
80258;DHT22;69565;37.974;23.708;2023-08-20T04:37:56;30.00;37.60
80258;DHT22;69565;37.974;23.708;2023-08-20T04:40:22;30.10;37.60
80258;DHT22;69565;37.974;23.708;2023-08-20T04:42:49;30.10;37.50
80258;DHT22;69565;37.974;23.708;2023-08-20T04:45:14;30.10;37.50
80258;DHT22;69565;37.974;23.708;2023-08-20T04:47:43;30.10;37.40
80258;DHT22;69565;37.974;23.708;2023-08-20T04:50:09;30.20;37.40
80258;DHT22;69565;37.974;23.708;2023-08-20T04:52:35;30.20;37.30
80258;DHT22;69565;37.974;23.708;2023-08-20T04:55:01;30.30;37.30
80258;DHT22;69565;37.974;23.708;2023-08-20T04:57:27;30.30;37.10
80258;DHT22;69565;37.974;23.708;2023-08-20T04:59:53;30.40;37.10
80258;DHT22;69565;37.974;23.708;2023-08-20T05:02:19;30.40;36.90
80258;DHT22;69565;37.974;23.708;2023-08-20T05:04:44;30.50;36.90
80258;DHT22;69565;37.974;23.708;2023-08-20T05:07:10;30.50;36.70
80258;DHT22;69565;37.974;23.708;2023-08-20T05:09:36;30.60;36.80
80258;DHT22;69565;37.974;23.708;2023-08-20T05:12:02;30.60;36.60
80258;DHT22;69565;37.974;23.708;2023-08-20T05:14:28;30.70;36.60
80258;DHT22;69565;37.974;23.708;2023-08-20T05:16:55;30.70;36.40
80258;DHT22;69565;37.974;23.708;2023-08-20T05:19:20;30.70;36.30
80258;DHT22;69565;37.974;23.708;2023-08-20T05:21:46;30.80;36.30
80258;DHT22;69565;37.974;23.708;2023-08-20T05:24:12;30.90;36.30
80258;DHT22;69565;37.974;23.708;2023-08-20T05:26:37;30.90;36.10
80258;DHT22;69565;37.974;23.708;2023-08-20T05:29:03;31.00;36.10
80258;DHT22;69565;37.974;23.708;2023-08-20T05:31:29;31.00;35.90
80258;DHT22;69565;37.974;23.708;2023-08-20T05:33:54;31.10;35.90
80258;DHT22;69565;37.974;23.708;2023-08-20T05:36:20;31.20;35.80
80258;DHT22;69565;37.974;23.708;2023-08-20T05:38:46;31.20;35.60
80258;DHT22;69565;37.974;23.708;2023-08-20T05:41:12;31.30;35.60
80258;DHT22;69565;37.974;23.708;2023-08-20T05:43:37;31.30;35.40
80258;DHT22;69565;37.974;23.708;2023-08-20T05:46:03;31.40;35.40
80258;DHT22;69565;37.974;23.708;2023-08-20T05:48:29;31.40;35.30
80258;DHT22;69565;37.974;23.708;2023-08-20T05:50:55;31.50;35.10
80258;DHT22;69565;37.974;23.708;2023-08-20T05:53:22;31.60;35.10
80258;DHT22;69565;37.974;23.708;2023-08-20T05:55:47;31.70;35.00
80258;DHT22;69565;37.974;23.708;2023-08-20T05:58:13;31.70;34.80
80258;DHT22;69565;37.974;23.708;2023-08-20T06:00:39;31.80;34.80
80258;DHT22;69565;37.974;23.708;2023-08-20T06:03:05;31.90;34.70
80258;DHT22;69565;37.974;23.708;2023-08-20T06:05:36;31.90;34.60
80258;DHT22;69565;37.974;23.708;2023-08-20T06:08:01;32.00;34.50
80258;DHT22;69565;37.974;23.708;2023-08-20T06:10:27;32.00;34.30
80258;DHT22;69565;37.974;23.708;2023-08-20T06:12:53;32.10;34.20
80258;DHT22;69565;37.974;23.708;2023-08-20T06:15:19;32.20;34.10
80258;DHT22;69565;37.974;23.708;2023-08-20T06:17:45;32.20;34.00
80258;DHT22;69565;37.974;23.708;2023-08-20T06:20:11;32.30;33.90
80258;DHT22;69565;37.974;23.708;2023-08-20T06:22:37;32.40;33.80
80258;DHT22;69565;37.974;23.708;2023-08-20T06:25:04;32.40;33.90
80258;DHT22;69565;37.974;23.708;2023-08-20T06:27:30;32.50;33.70
80258;DHT22;69565;37.974;23.708;2023-08-20T06:29:56;32.50;33.60
80258;DHT22;69565;37.974;23.708;2023-08-20T06:32:23;32.60;33.50
80258;DHT22;69565;37.974;23.708;2023-08-20T06:34:49;32.60;33.40
80258;DHT22;69565;37.974;23.708;2023-08-20T06:37:14;32.70;33.30
80258;DHT22;69565;37.974;23.708;2023-08-20T06:39:40;32.80;33.20
80258;DHT22;69565;37.974;23.708;2023-08-20T06:42:06;32.80;33.10
80258;DHT22;69565;37.974;23.708;2023-08-20T06:44:31;32.90;33.00
80258;DHT22;69565;37.974;23.708;2023-08-20T06:46:57;33.00;32.90
80258;DHT22;69565;37.974;23.708;2023-08-20T06:49:23;33.00;32.90
80258;DHT22;69565;37.974;23.708;2023-08-20T06:51:49;33.10;32.80
80258;DHT22;69565;37.974;23.708;2023-08-20T06:54:15;33.10;33.10
80258;DHT22;69565;37.974;23.708;2023-08-20T06:56:41;33.20;32.60
80258;DHT22;69565;37.974;23.708;2023-08-20T06:59:07;33.20;32.50
80258;DHT22;69565;37.974;23.708;2023-08-20T07:01:33;33.20;32.40
80258;DHT22;69565;37.974;23.708;2023-08-20T07:03:59;33.30;32.30
80258;DHT22;69565;37.974;23.708;2023-08-20T07:06:24;33.40;32.30
80258;DHT22;69565;37.974;23.708;2023-08-20T07:08:50;33.40;32.10
80258;DHT22;69565;37.974;23.708;2023-08-20T07:11:16;33.40;32.00
80258;DHT22;69565;37.974;23.708;2023-08-20T07:13:42;33.50;32.00
80258;DHT22;69565;37.974;23.708;2023-08-20T07:16:07;33.50;32.00
80258;DHT22;69565;37.974;23.708;2023-08-20T07:18:33;33.60;31.90
80258;DHT22;69565;37.974;23.708;2023-08-20T07:20:59;33.60;31.80
80258;DHT22;69565;37.974;23.708;2023-08-20T07:23:25;33.70;32.00
80258;DHT22;69565;37.974;23.708;2023-08-20T07:25:50;33.70;31.80
80258;DHT22;69565;37.974;23.708;2023-08-20T07:28:18;33.70;31.80
80258;DHT22;69565;37.974;23.708;2023-08-20T07:31:06;33.70;31.90
80258;DHT22;69565;37.974;23.708;2023-08-20T07:33:32;33.70;31.80
80258;DHT22;69565;37.974;23.708;2023-08-20T07:35:57;33.70;31.70
80258;DHT22;69565;37.974;23.708;2023-08-20T07:38:23;33.70;31.70
80258;DHT22;69565;37.974;23.708;2023-08-20T07:40:49;33.70;31.80
80258;DHT22;69565;37.974;23.708;2023-08-20T07:43:14;33.70;31.70
80258;DHT22;69565;37.974;23.708;2023-08-20T07:45:40;33.70;31.70
80258;DHT22;69565;37.974;23.708;2023-08-20T07:48:06;33.60;31.70
80258;DHT22;69565;37.974;23.708;2023-08-20T07:50:32;33.50;31.70
80258;DHT22;69565;37.974;23.708;2023-08-20T07:52:57;33.50;31.70
80258;DHT22;69565;37.974;23.708;2023-08-20T07:55:23;33.50;31.90
80258;DHT22;69565;37.974;23.708;2023-08-20T07:57:49;33.40;32.00
80258;DHT22;69565;37.974;23.708;2023-08-20T08:00:15;33.40;32.10
80258;DHT22;69565;37.974;23.708;2023-08-20T08:02:41;33.30;32.10
80258;DHT22;69565;37.974;23.708;2023-08-20T08:05:07;33.20;32.20
80258;DHT22;69565;37.974;23.708;2023-08-20T08:07:33;33.20;32.30
80258;DHT22;69565;37.974;23.708;2023-08-20T08:09:58;33.10;32.30
80258;DHT22;69565;37.974;23.708;2023-08-20T08:12:24;33.00;32.50
80258;DHT22;69565;37.974;23.708;2023-08-20T08:14:50;33.00;32.60
80258;DHT22;69565;37.974;23.708;2023-08-20T08:17:15;32.90;32.60
80258;DHT22;69565;37.974;23.708;2023-08-20T08:19:41;32.90;32.80
80258;DHT22;69565;37.974;23.708;2023-08-20T08:22:07;32.80;32.70
80258;DHT22;69565;37.974;23.708;2023-08-20T08:24:32;32.80;32.70
80258;DHT22;69565;37.974;23.708;2023-08-20T08:26:58;32.80;33.00
80258;DHT22;69565;37.974;23.708;2023-08-20T08:29:24;32.70;33.00
80258;DHT22;69565;37.974;23.708;2023-08-20T08:31:49;32.70;33.10
80258;DHT22;69565;37.974;23.708;2023-08-20T08:34:15;32.70;33.20
80258;DHT22;69565;37.974;23.708;2023-08-20T08:36:41;32.70;33.20
80258;DHT22;69565;37.974;23.708;2023-08-20T08:39:06;32.60;33.00
80258;DHT22;69565;37.974;23.708;2023-08-20T08:41:35;32.60;33.20
80258;DHT22;69565;37.974;23.708;2023-08-20T08:44:03;32.60;33.10
80258;DHT22;69565;37.974;23.708;2023-08-20T08:46:29;32.60;33.10
80258;DHT22;69565;37.974;23.708;2023-08-20T08:48:55;32.60;33.20
80258;DHT22;69565;37.974;23.708;2023-08-20T08:51:21;32.60;33.20
80258;DHT22;69565;37.974;23.708;2023-08-20T08:53:47;32.60;33.30
80258;DHT22;69565;37.974;23.708;2023-08-20T08:56:13;32.60;34.30
80258;DHT22;69565;37.974;23.708;2023-08-20T08:58:39;32.60;33.20
80258;DHT22;69565;37.974;23.708;2023-08-20T09:01:04;32.60;33.20
80258;DHT22;69565;37.974;23.708;2023-08-20T09:03:30;32.60;33.20
80258;DHT22;69565;37.974;23.708;2023-08-20T09:05:58;32.60;33.20
80258;DHT22;69565;37.974;23.708;2023-08-20T09:08:32;32.60;33.20
80258;DHT22;69565;37.974;23.708;2023-08-20T09:10:59;32.60;33.20
80258;DHT22;69565;37.974;23.708;2023-08-20T09:13:37;32.60;33.30
80258;DHT22;69565;37.974;23.708;2023-08-20T09:16:06;32.60;33.30
80258;DHT22;69565;37.974;23.708;2023-08-20T09:18:37;32.60;33.20
80258;DHT22;69565;37.974;23.708;2023-08-20T09:21:09;32.60;33.20
80258;DHT22;69565;37.974;23.708;2023-08-20T09:23:35;32.50;33.20
80258;DHT22;69565;37.974;23.708;2023-08-20T09:26:02;32.60;34.40
80258;DHT22;69565;37.974;23.708;2023-08-20T09:28:28;32.60;33.30
80258;DHT22;69565;37.974;23.708;2023-08-20T09:31:00;32.50;33.20
80258;DHT22;69565;37.974;23.708;2023-08-20T09:33:29;32.60;33.30
80258;DHT22;69565;37.974;23.708;2023-08-20T09:35:55;32.60;33.30
80258;DHT22;69565;37.974;23.708;2023-08-20T09:38:22;32.50;34.40
80258;DHT22;69565;37.974;23.708;2023-08-20T09:40:52;32.50;33.30
80258;DHT22;69565;37.974;23.708;2023-08-20T09:43:19;32.50;34.40
80258;DHT22;69565;37.974;23.708;2023-08-20T09:45:46;32.50;33.30
80258;DHT22;69565;37.974;23.708;2023-08-20T09:48:17;32.50;33.30
80258;DHT22;69565;37.974;23.708;2023-08-20T09:50:47;32.50;33.30
80258;DHT22;69565;37.974;23.708;2023-08-20T09:53:48;32.50;33.30
80258;DHT22;69565;37.974;23.708;2023-08-20T09:56:23;32.50;33.20
80258;DHT22;69565;37.974;23.708;2023-08-20T09:58:50;32.50;33.40
80258;DHT22;69565;37.974;23.708;2023-08-20T10:01:16;32.50;33.40
80258;DHT22;69565;37.974;23.708;2023-08-20T10:03:43;32.50;33.50
80258;DHT22;69565;37.974;23.708;2023-08-20T10:06:09;32.40;33.40
80258;DHT22;69565;37.974;23.708;2023-08-20T10:08:36;32.40;33.30
80258;DHT22;69565;37.974;23.708;2023-08-20T10:11:03;32.40;33.20
80258;DHT22;69565;37.974;23.708;2023-08-20T10:13:29;32.40;33.30
80258;DHT22;69565;37.974;23.708;2023-08-20T10:15:56;32.40;33.30
80258;DHT22;69565;37.974;23.708;2023-08-20T10:18:22;32.40;33.30
80258;DHT22;69565;37.974;23.708;2023-08-20T10:20:51;32.40;33.40
80258;DHT22;69565;37.974;23.708;2023-08-20T10:23:20;32.40;33.40
80258;DHT22;69565;37.974;23.708;2023-08-20T10:25:52;32.40;33.40
80258;DHT22;69565;37.974;23.708;2023-08-20T10:28:24;32.40;33.40
80258;DHT22;69565;37.974;23.708;2023-08-20T10:31:12;32.40;33.40
80258;DHT22;69565;37.974;23.708;2023-08-20T10:36:23;32.40;33.50
80258;DHT22;69565;37.974;23.708;2023-08-20T10:39:04;32.40;33.60
80258;DHT22;69565;37.974;23.708;2023-08-20T10:41:30;32.40;33.60
80258;DHT22;69565;37.974;23.708;2023-08-20T10:44:00;32.40;33.70
80258;DHT22;69565;37.974;23.708;2023-08-20T10:46:27;32.40;33.70
80258;DHT22;69565;37.974;23.708;2023-08-20T10:49:00;32.30;33.70
80258;DHT22;69565;37.974;23.708;2023-08-20T10:51:36;32.30;33.60
80258;DHT22;69565;37.974;23.708;2023-08-20T10:54:02;32.30;33.70
80258;DHT22;69565;37.974;23.708;2023-08-20T10:56:45;32.30;33.60
80258;DHT22;69565;37.974;23.708;2023-08-20T10:59:22;32.30;33.60
80258;DHT22;69565;37.974;23.708;2023-08-20T11:01:49;32.30;33.60
80258;DHT22;69565;37.974;23.708;2023-08-20T11:04:16;32.20;33.50
80258;DHT22;69565;37.974;23.708;2023-08-20T11:06:43;32.30;33.50
80258;DHT22;69565;37.974;23.708;2023-08-20T11:09:09;32.20;33.40
80258;DHT22;69565;37.974;23.708;2023-08-20T11:11:38;32.20;33.40
80258;DHT22;69565;37.974;23.708;2023-08-20T11:14:06;32.20;33.40
80258;DHT22;69565;37.974;23.708;2023-08-20T11:16:34;32.20;33.30
80258;DHT22;69565;37.974;23.708;2023-08-20T11:19:00;32.20;33.40
80258;DHT22;69565;37.974;23.708;2023-08-20T11:21:28;32.20;33.20
80258;DHT22;69565;37.974;23.708;2023-08-20T11:23:54;32.20;33.10
80258;DHT22;69565;37.974;23.708;2023-08-20T11:26:20;32.20;33.20
80258;DHT22;69565;37.974;23.708;2023-08-20T11:28:46;32.20;34.20
80258;DHT22;69565;37.974;23.708;2023-08-20T11:31:13;32.20;33.10
80258;DHT22;69565;37.974;23.708;2023-08-20T11:33:39;32.20;33.00
80258;DHT22;69565;37.974;23.708;2023-08-20T11:36:05;32.20;34.10
80258;DHT22;69565;37.974;23.708;2023-08-20T11:38:31;32.20;33.00
80258;DHT22;69565;37.974;23.708;2023-08-20T11:41:00;32.10;32.90
80258;DHT22;69565;37.974;23.708;2023-08-20T11:43:29;32.10;32.90
80258;DHT22;69565;37.974;23.708;2023-08-20T11:45:55;32.20;33.00
80258;DHT22;69565;37.974;23.708;2023-08-20T11:48:22;32.20;33.00
80258;DHT22;69565;37.974;23.708;2023-08-20T11:50:48;32.10;32.90
80258;DHT22;69565;37.974;23.708;2023-08-20T11:53:15;32.20;33.00
80258;DHT22;69565;37.974;23.708;2023-08-20T11:55:41;32.10;32.80
80258;DHT22;69565;37.974;23.708;2023-08-20T11:58:12;32.10;32.90
80258;DHT22;69565;37.974;23.708;2023-08-20T12:00:38;32.10;32.80
80258;DHT22;69565;37.974;23.708;2023-08-20T12:03:04;32.10;32.80
80258;DHT22;69565;37.974;23.708;2023-08-20T12:05:31;32.10;32.80
80258;DHT22;69565;37.974;23.708;2023-08-20T12:08:04;32.10;32.80
80258;DHT22;69565;37.974;23.708;2023-08-20T12:10:32;32.10;32.80
80258;DHT22;69565;37.974;23.708;2023-08-20T12:12:58;32.10;32.90
80258;DHT22;69565;37.974;23.708;2023-08-20T12:15:25;32.10;32.90
80258;DHT22;69565;37.974;23.708;2023-08-20T12:18:03;32.10;32.80
80258;DHT22;69565;37.974;23.708;2023-08-20T12:20:35;32.10;32.90
80258;DHT22;69565;37.974;23.708;2023-08-20T12:23:06;32.10;32.80
80258;DHT22;69565;37.974;23.708;2023-08-20T12:25:34;32.10;32.90
80258;DHT22;69565;37.974;23.708;2023-08-20T12:28:04;32.00;32.80
80258;DHT22;69565;37.974;23.708;2023-08-20T12:30:33;32.00;32.80
80258;DHT22;69565;37.974;23.708;2023-08-20T12:33:02;32.00;32.80
80258;DHT22;69565;37.974;23.708;2023-08-20T12:35:28;32.00;32.80
80258;DHT22;69565;37.974;23.708;2023-08-20T12:37:54;32.00;32.90
80258;DHT22;69565;37.974;23.708;2023-08-20T12:40:20;32.00;32.80
80258;DHT22;69565;37.974;23.708;2023-08-20T12:42:45;32.00;32.70
80258;DHT22;69565;37.974;23.708;2023-08-20T12:45:11;32.00;32.70
80258;DHT22;69565;37.974;23.708;2023-08-20T12:47:38;32.00;32.80
80258;DHT22;69565;37.974;23.708;2023-08-20T12:50:05;32.00;32.90
80258;DHT22;69565;37.974;23.708;2023-08-20T12:52:32;32.00;32.90
80258;DHT22;69565;37.974;23.708;2023-08-20T12:54:57;32.00;32.90
80258;DHT22;69565;37.974;23.708;2023-08-20T12:57:23;32.00;32.90
80258;DHT22;69565;37.974;23.708;2023-08-20T12:59:49;32.00;32.90
80258;DHT22;69565;37.974;23.708;2023-08-20T13:02:14;32.00;33.00
80258;DHT22;69565;37.974;23.708;2023-08-20T13:04:41;32.00;33.00
80258;DHT22;69565;37.974;23.708;2023-08-20T13:07:07;32.00;33.00
80258;DHT22;69565;37.974;23.708;2023-08-20T13:09:33;32.00;33.10
80258;DHT22;69565;37.974;23.708;2023-08-20T13:12:01;32.00;33.00
80258;DHT22;69565;37.974;23.708;2023-08-20T13:14:29;32.00;33.00
80258;DHT22;69565;37.974;23.708;2023-08-20T13:16:55;32.00;33.00
80258;DHT22;69565;37.974;23.708;2023-08-20T13:19:22;32.00;33.10
80258;DHT22;69565;37.974;23.708;2023-08-20T13:21:47;32.00;33.00
80258;DHT22;69565;37.974;23.708;2023-08-20T13:24:13;32.00;33.00
80258;DHT22;69565;37.974;23.708;2023-08-20T13:26:39;32.00;33.00
80258;DHT22;69565;37.974;23.708;2023-08-20T13:29:05;32.00;33.00
80258;DHT22;69565;37.974;23.708;2023-08-20T13:31:30;31.90;33.00
80258;DHT22;69565;37.974;23.708;2023-08-20T13:33:56;31.90;33.00
80258;DHT22;69565;37.974;23.708;2023-08-20T13:36:22;31.90;33.00
80258;DHT22;69565;37.974;23.708;2023-08-20T13:38:47;31.90;33.00
80258;DHT22;69565;37.974;23.708;2023-08-20T13:41:13;31.90;33.00
80258;DHT22;69565;37.974;23.708;2023-08-20T13:43:39;31.90;33.00
80258;DHT22;69565;37.974;23.708;2023-08-20T13:46:05;31.90;33.00
80258;DHT22;69565;37.974;23.708;2023-08-20T13:48:30;31.90;33.00
80258;DHT22;69565;37.974;23.708;2023-08-20T13:50:56;31.90;33.10
80258;DHT22;69565;37.974;23.708;2023-08-20T13:53:22;31.90;33.00
80258;DHT22;69565;37.974;23.708;2023-08-20T13:55:47;31.90;33.00
80258;DHT22;69565;37.974;23.708;2023-08-20T13:58:13;31.90;33.10
80258;DHT22;69565;37.974;23.708;2023-08-20T14:00:40;31.90;33.10
80258;DHT22;69565;37.974;23.708;2023-08-20T14:03:05;31.90;33.10
80258;DHT22;69565;37.974;23.708;2023-08-20T14:05:31;31.90;33.20
80258;DHT22;69565;37.974;23.708;2023-08-20T14:07:57;31.90;33.20
80258;DHT22;69565;37.974;23.708;2023-08-20T14:10:23;31.90;33.20
80258;DHT22;69565;37.974;23.708;2023-08-20T14:12:49;31.90;33.20
80258;DHT22;69565;37.974;23.708;2023-08-20T14:15:15;31.90;33.20
80258;DHT22;69565;37.974;23.708;2023-08-20T14:17:41;31.90;33.30
80258;DHT22;69565;37.974;23.708;2023-08-20T14:20:07;31.90;33.30
80258;DHT22;69565;37.974;23.708;2023-08-20T14:22:33;31.90;33.30
80258;DHT22;69565;37.974;23.708;2023-08-20T14:24:59;31.90;33.40
80258;DHT22;69565;37.974;23.708;2023-08-20T14:27:24;31.90;33.50
80258;DHT22;69565;37.974;23.708;2023-08-20T14:29:50;31.90;33.50
80258;DHT22;69565;37.974;23.708;2023-08-20T14:32:16;31.90;33.50
80258;DHT22;69565;37.974;23.708;2023-08-20T14:34:42;31.90;33.50
80258;DHT22;69565;37.974;23.708;2023-08-20T14:37:07;31.90;33.60
80258;DHT22;69565;37.974;23.708;2023-08-20T14:39:35;31.90;33.70
80258;DHT22;69565;37.974;23.708;2023-08-20T14:42:01;31.90;33.70
80258;DHT22;69565;37.974;23.708;2023-08-20T14:44:27;31.90;33.80
80258;DHT22;69565;37.974;23.708;2023-08-20T14:46:53;31.80;33.80
80258;DHT22;69565;37.974;23.708;2023-08-20T14:49:19;31.90;33.90
80258;DHT22;69565;37.974;23.708;2023-08-20T14:51:45;31.80;33.90
80258;DHT22;69565;37.974;23.708;2023-08-20T14:54:10;31.80;33.90
80258;DHT22;69565;37.974;23.708;2023-08-20T14:56:36;31.80;34.10
80258;DHT22;69565;37.974;23.708;2023-08-20T14:59:02;31.80;34.10
80258;DHT22;69565;37.974;23.708;2023-08-20T15:01:29;31.80;35.10
80258;DHT22;69565;37.974;23.708;2023-08-20T15:03:55;31.80;34.20
80258;DHT22;69565;37.974;23.708;2023-08-20T15:06:21;31.80;34.20
80258;DHT22;69565;37.974;23.708;2023-08-20T15:08:50;31.80;34.20
80258;DHT22;69565;37.974;23.708;2023-08-20T15:11:16;31.80;34.30
80258;DHT22;69565;37.974;23.708;2023-08-20T15:13:41;31.80;34.40
80258;DHT22;69565;37.974;23.708;2023-08-20T15:16:07;31.80;34.40
80258;DHT22;69565;37.974;23.708;2023-08-20T15:18:33;31.80;34.50
80258;DHT22;69565;37.974;23.708;2023-08-20T15:21:00;31.80;34.50
80258;DHT22;69565;37.974;23.708;2023-08-20T15:23:27;31.80;34.40
80258;DHT22;69565;37.974;23.708;2023-08-20T15:25:54;31.80;34.40